Terminal Aerodrome Forecast
Issued by NWS

Home | Current Version | Previous Version | Text Only | Print | Product List | Glossary On
Versions: 1 2 3 4 5 6 7 8 9 10 11 12 13 14 15 16 17 18 19 20
000
FTUS44 KEWX 260900 AAB
TAFSSF
TAF AMD
KSSF 260900Z 2609/2706 15008KT P6SM FEW250
     FM261100 16005KT P6SM BKN011
     FM261500 17008KT P6SM FEW035
     FM262100 14011KT P6SM FEW060=

USA.gov is the U.S. government's official web portal to all federal, state and local government web resources and services.